createdAt,value
2023-02-22T00:00:59.842Z,18.00
2023-02-22T00:03:28.984Z,17.52
2023-02-22T00:05:59.691Z,16.52
2023-02-22T00:08:31.934Z,15.57
2023-02-22T00:11:04.669Z,16.38
2023-02-22T00:13:31.819Z,17.48
2023-02-22T00:16:02.691Z,16.25
2023-02-22T00:18:30.100Z,16.27
2023-02-22T00:21:01.623Z,14.27
2023-02-22T00:23:30.689Z,15.68
2023-02-22T00:25:59.732Z,15.05
2023-02-22T00:28:27.449Z,16.83
2023-02-22T00:30:55.673Z,15.20
2023-02-22T00:33:23.302Z,15.18
2023-02-22T00:35:50.381Z,15.50
2023-02-22T00:38:19.039Z,17.05
2023-02-22T00:40:46.151Z,16.13
2023-02-22T00:43:14.027Z,15.95
2023-02-22T00:45:41.306Z,15.95
2023-02-22T00:48:09.735Z,14.98
2023-02-22T00:50:37.350Z,13.80
2023-02-22T00:53:05.375Z,15.10
2023-02-22T00:55:35.504Z,13.55
2023-02-22T00:58:04.405Z,14.63
2023-02-22T01:00:37.054Z,15.30
2023-02-22T01:03:05.996Z,14.40
2023-02-22T01:05:33.567Z,15.40
2023-02-22T01:08:02.312Z,14.73
2023-02-22T01:10:31.184Z,16.30
2023-02-22T01:13:00.263Z,15.32
2023-02-22T01:15:30.739Z,15.40
2023-02-22T01:17:59.679Z,15.00
2023-02-22T01:20:29.420Z,14.48
2023-02-22T01:22:59.315Z,16.33
2023-02-22T01:25:31.031Z,15.32
2023-02-22T01:28:00.683Z,15.02
2023-02-22T01:30:34.556Z,15.10
2023-02-22T01:33:03.584Z,15.18
2023-02-22T01:35:32.861Z,14.63
2023-02-22T01:37:59.969Z,14.23
2023-02-22T01:40:32.973Z,15.98
2023-02-22T01:43:03.292Z,14.52
2023-02-22T01:45:30.467Z,14.68
2023-02-22T01:48:09.156Z,15.27
2023-02-22T01:50:55.998Z,15.63
2023-02-22T01:53:41.531Z,14.00
2023-02-22T01:56:09.668Z,15.02
2023-02-22T01:58:41.159Z,14.55
2023-02-22T02:01:09.380Z,15.13
2023-02-22T02:03:39.928Z,15.63
2023-02-22T02:06:12.712Z,15.82
2023-02-22T02:09:05.035Z,14.90
2023-02-22T02:11:32.520Z,16.15
2023-02-22T02:14:00.168Z,15.73
2023-02-22T02:16:39.024Z,14.35
2023-02-22T02:19:18.169Z,16.15
2023-02-22T02:22:16.782Z,15.00
2023-02-22T02:25:05.116Z,14.63
2023-02-22T02:27:50.777Z,14.88
2023-02-22T02:30:39.086Z,14.93
2023-02-22T02:33:34.755Z,14.93
2023-02-22T02:36:05.382Z,14.48
2023-02-22T02:38:36.218Z,15.40
2023-02-22T02:41:21.691Z,15.73
2023-02-22T02:43:59.473Z,15.25
2023-02-22T02:46:39.218Z,15.73
2023-02-22T02:49:12.310Z,14.27
2023-02-22T02:51:44.313Z,16.58
2023-02-22T02:54:13.447Z,16.50
2023-02-22T02:56:42.781Z,14.55
2023-02-22T02:59:29.966Z,15.82
2023-02-22T03:02:12.781Z,15.88
2023-02-22T03:04:39.745Z,16.33
2023-02-22T03:07:38.494Z,14.82
2023-02-22T03:10:27.100Z,16.20
2023-02-22T03:12:54.084Z,18.25
2023-02-22T03:15:45.933Z,17.20
2023-02-22T03:18:26.136Z,17.75
2023-02-22T03:21:01.059Z,16.98
2023-02-22T03:23:35.418Z,17.27
2023-02-22T03:26:12.178Z,17.90
2023-02-22T03:28:41.927Z,18.08
2023-02-22T03:31:18.075Z,17.80
2023-02-22T03:33:54.406Z,17.50
2023-02-22T03:36:34.606Z,17.33
2023-02-22T03:39:04.253Z,18.20
2023-02-22T03:41:34.617Z,19.15
2023-02-22T03:44:12.201Z,19.05
2023-02-22T03:46:41.006Z,18.83
2023-02-22T03:49:45.609Z,19.42
2023-02-22T03:52:13.080Z,19.90
2023-02-22T03:54:40.783Z,18.58
2023-02-22T03:57:17.623Z,19.63
2023-02-22T03:59:46.005Z,19.45
2023-02-22T04:02:13.041Z,18.20
2023-02-22T04:04:40.155Z,21.83
2023-02-22T04:07:07.226Z,20.17
2023-02-22T04:09:34.404Z,19.38
2023-02-22T04:12:01.518Z,19.20
2023-02-22T04:14:29.557Z,17.55
2023-02-22T04:16:58.298Z,20.92
2023-02-22T04:19:25.437Z,20.88
2023-02-22T04:21:53.159Z,20.08
2023-02-22T04:24:20.218Z,21.63
2023-02-22T04:26:47.340Z,19.08
2023-02-22T04:29:14.417Z,20.83
2023-02-22T04:31:41.610Z,20.20
2023-02-22T04:34:08.843Z,21.55
2023-02-22T04:36:35.952Z,19.35
2023-02-22T04:39:03.590Z,21.45
2023-02-22T04:41:31.523Z,21.52
2023-02-22T04:43:58.719Z,21.70
2023-02-22T04:46:26.167Z,22.35
2023-02-22T04:48:54.344Z,22.35
2023-02-22T04:51:21.462Z,22.77
2023-02-22T04:53:48.551Z,21.13
2023-02-22T04:56:18.534Z,22.23
2023-02-22T04:58:45.602Z,21.20
2023-02-22T05:01:12.711Z,21.38
2023-02-22T05:03:40.048Z,21.25
2023-02-22T05:06:07.580Z,21.95
2023-02-22T05:08:34.957Z,21.90
2023-02-22T05:11:02.055Z,21.98
2023-02-22T05:13:29.172Z,21.25
2023-02-22T05:15:58.662Z,21.80
2023-02-22T05:18:26.357Z,22.38
2023-02-22T05:20:54.050Z,22.70
2023-02-22T05:23:21.129Z,23.80
2023-02-22T05:25:48.364Z,23.88
2023-02-22T05:28:17.272Z,22.77
2023-02-22T05:30:44.480Z,23.58
2023-02-22T05:33:11.749Z,24.10
2023-02-22T05:35:38.884Z,24.00
2023-02-22T05:38:06.582Z,25.20
2023-02-22T05:40:33.965Z,25.33
2023-02-22T05:43:02.213Z,25.23
2023-02-22T05:45:29.865Z,25.70
2023-02-22T05:47:58.142Z,25.85
2023-02-22T05:50:26.267Z,26.63
2023-02-22T05:52:54.192Z,27.15
2023-02-22T05:55:23.580Z,28.50
2023-02-22T05:57:52.396Z,26.63
2023-02-22T06:00:26.515Z,27.10
2023-02-22T06:03:03.403Z,27.27
2023-02-22T06:05:31.110Z,25.30
2023-02-22T06:07:59.049Z,26.13
2023-02-22T06:10:28.207Z,23.30
2023-02-22T06:12:57.384Z,25.17
2023-02-22T06:15:26.657Z,24.85
2023-02-22T06:17:56.304Z,24.25
2023-02-22T06:20:26.420Z,24.58
2023-02-22T06:22:55.364Z,25.13
2023-02-22T06:25:28.244Z,26.45
2023-02-22T06:27:56.190Z,25.65
2023-02-22T06:30:24.953Z,24.70
2023-02-22T06:32:52.046Z,26.55
2023-02-22T06:35:19.371Z,27.33
2023-02-22T06:37:46.944Z,24.58
2023-02-22T06:40:15.691Z,26.23
2023-02-22T06:42:43.232Z,24.83
2023-02-22T06:45:11.041Z,25.02
2023-02-22T06:47:42.205Z,26.15
2023-02-22T06:50:21.016Z,26.25
2023-02-22T06:52:48.264Z,26.38
2023-02-22T06:55:24.934Z,28.25
2023-02-22T06:57:52.483Z,26.60
2023-02-22T07:00:21.600Z,27.65
2023-02-22T07:02:48.937Z,26.20
2023-02-22T07:05:18.746Z,24.52
2023-02-22T07:07:47.251Z,25.20
2023-02-22T07:10:29.697Z,25.35
2023-02-22T07:12:57.540Z,26.77
2023-02-22T07:15:28.101Z,26.88
2023-02-22T07:17:56.443Z,25.92
2023-02-22T07:20:25.031Z,25.55
2023-02-22T07:22:52.723Z,28.30
2023-02-22T07:25:20.654Z,26.95
2023-02-22T07:27:48.165Z,27.38
2023-02-22T07:30:18.623Z,29.77
2023-02-22T07:32:47.096Z,30.48
2023-02-22T07:35:18.191Z,30.63
2023-02-22T07:37:45.934Z,29.85
2023-02-22T07:40:13.038Z,28.88
2023-02-22T07:42:56.397Z,30.70
2023-02-22T07:45:26.598Z,30.40
2023-02-22T07:47:53.945Z,29.25
2023-02-22T07:50:23.437Z,27.95
2023-02-22T07:52:53.191Z,29.08
2023-02-22T07:55:22.871Z,28.67
2023-02-22T07:57:51.799Z,29.40
2023-02-22T08:00:41.121Z,26.60
2023-02-22T08:03:10.262Z,28.63
2023-02-22T08:05:39.216Z,26.98
2023-02-22T08:08:07.694Z,27.98
2023-02-22T08:10:35.718Z,27.55
2023-02-22T08:13:04.453Z,29.15
2023-02-22T08:15:35.007Z,28.13
2023-02-22T08:18:03.905Z,27.73
2023-02-22T08:20:31.927Z,27.38
2023-02-22T08:22:59.061Z,27.27
2023-02-22T08:25:28.724Z,29.33
2023-02-22T08:28:01.275Z,26.42
2023-02-22T08:30:30.769Z,27.60
2023-02-22T08:32:58.585Z,28.27
2023-02-22T08:35:27.778Z,28.40
2023-02-22T08:37:59.220Z,25.67
2023-02-22T08:40:30.964Z,26.73
2023-02-22T08:42:58.450Z,25.00
2023-02-22T08:45:26.704Z,24.20
2023-02-22T08:47:54.112Z,25.70
2023-02-22T08:50:28.151Z,25.08
2023-02-22T08:53:00.791Z,23.75
2023-02-22T08:55:32.582Z,24.38
2023-02-22T08:58:02.832Z,24.95
2023-02-22T09:00:32.980Z,23.20
2023-02-22T09:03:04.384Z,23.95
2023-02-22T09:05:31.999Z,22.98
2023-02-22T09:08:00.448Z,22.20
2023-02-22T09:10:31.679Z,22.27
2023-02-22T09:13:00.845Z,21.10
2023-02-22T09:15:28.653Z,22.70
2023-02-22T09:17:56.516Z,20.40
2023-02-22T09:20:25.231Z,20.85
2023-02-22T09:22:53.383Z,20.63
2023-02-22T09:25:20.990Z,18.85
2023-02-22T09:27:50.157Z,20.52
2023-02-22T09:30:24.625Z,19.48
2023-02-22T09:32:58.038Z,21.00
2023-02-22T09:35:27.826Z,18.33
2023-02-22T09:38:00.070Z,18.75
2023-02-22T09:40:30.832Z,17.25
2023-02-22T09:43:00.946Z,17.85
2023-02-22T09:45:36.760Z,17.73
2023-02-22T09:48:20.844Z,17.85
2023-02-22T09:50:53.039Z,17.60
2023-02-22T09:53:30.878Z,18.77
2023-02-22T09:56:06.967Z,18.02
2023-02-22T09:58:47.472Z,19.05
2023-02-22T10:01:39.397Z,19.20
2023-02-22T10:04:12.478Z,20.08
2023-02-22T10:06:44.145Z,19.75
2023-02-22T10:09:11.539Z,19.58
2023-02-22T10:11:58.168Z,19.30
2023-02-22T10:14:33.275Z,19.13
2023-02-22T10:17:32.692Z,19.25
2023-02-22T10:20:18.850Z,19.92
2023-02-22T10:23:04.514Z,18.73
2023-02-22T10:25:36.350Z,20.05
2023-02-22T10:28:24.320Z,20.25
2023-02-22T10:31:02.224Z,18.88
2023-02-22T10:33:33.734Z,19.00
2023-02-22T10:36:00.925Z,19.70
2023-02-22T10:38:34.652Z,19.58
2023-02-22T10:43:38.771Z,19.85
2023-02-22T10:46:08.351Z,18.63
2023-02-22T10:48:38.411Z,18.70
2023-02-22T10:51:08.583Z,19.70
2023-02-22T10:53:38.355Z,20.10
2023-02-22T10:56:21.493Z,19.48
2023-02-22T10:59:02.322Z,19.77
2023-02-22T11:01:32.937Z,19.77
2023-02-22T11:04:13.286Z,18.67
2023-02-22T11:06:46.925Z,18.33
2023-02-22T11:09:22.547Z,18.75
2023-02-22T11:12:06.900Z,18.88
2023-02-22T11:14:34.061Z,16.25
2023-02-22T11:17:06.439Z,17.77
2023-02-22T11:19:34.301Z,17.40
2023-02-22T11:22:14.966Z,17.73
2023-02-22T11:24:57.650Z,17.33
2023-02-22T11:27:31.645Z,18.80
2023-02-22T11:30:12.009Z,16.98
2023-02-22T11:32:54.636Z,18.15
2023-02-22T11:35:53.686Z,16.65
2023-02-22T11:38:24.255Z,17.30
2023-02-22T11:41:18.256Z,17.23
2023-02-22T11:43:48.475Z,17.20
2023-02-22T11:46:30.241Z,18.30
2023-02-22T11:49:02.427Z,17.95
2023-02-22T11:52:09.671Z,19.17
2023-02-22T11:54:58.745Z,17.45
2023-02-22T11:57:38.943Z,16.88
2023-02-22T12:00:24.635Z,17.02
2023-02-22T12:03:33.425Z,16.77
2023-02-22T12:06:24.725Z,16.75
2023-02-22T12:09:00.021Z,17.25
2023-02-22T12:11:45.091Z,15.95
2023-02-22T12:14:36.605Z,16.48
2023-02-22T12:17:26.559Z,15.68
2023-02-22T12:20:01.245Z,16.38
2023-02-22T12:22:39.205Z,17.27
2023-02-22T12:25:22.745Z,15.95
2023-02-22T12:27:58.782Z,15.75
2023-02-22T12:30:41.072Z,17.50
2023-02-22T12:33:25.164Z,16.40
2023-02-22T12:38:44.381Z,16.45
2023-02-22T12:41:31.603Z,16.70
2023-02-22T12:44:06.499Z,17.30
2023-02-22T12:46:43.635Z,16.77
2023-02-22T12:49:42.725Z,19.08
2023-02-22T12:52:42.214Z,18.83
2023-02-22T12:55:31.646Z,18.25
2023-02-22T12:58:10.110Z,17.67
2023-02-22T13:00:57.770Z,17.08
2023-02-22T13:03:24.879Z,17.13
2023-02-22T13:06:01.279Z,17.13
2023-02-22T13:08:37.683Z,17.30
2023-02-22T13:11:19.690Z,18.38
2023-02-22T13:13:56.627Z,18.42
2023-02-22T13:16:52.504Z,18.77
2023-02-22T13:19:26.691Z,18.05
2023-02-22T13:22:32.661Z,16.77
2023-02-22T13:24:59.732Z,18.15
2023-02-22T13:27:38.765Z,17.17
2023-02-22T13:30:13.582Z,17.23
2023-02-22T13:32:51.466Z,17.63
2023-02-22T13:35:50.507Z,15.80
2023-02-22T13:38:17.540Z,16.42
2023-02-22T13:41:23.213Z,18.92
2023-02-22T13:44:09.034Z,17.63
2023-02-22T13:46:54.899Z,16.50
2023-02-22T13:49:39.797Z,17.10
2023-02-22T13:52:12.140Z,17.10
2023-02-22T13:54:46.871Z,16.98
2023-02-22T13:57:51.469Z,16.27
2023-02-22T14:03:02.125Z,17.13
2023-02-22T14:05:49.681Z,18.10
2023-02-22T14:08:19.707Z,16.83
2023-02-22T14:10:52.928Z,17.15
2023-02-22T14:13:27.834Z,18.55
2023-02-22T14:15:57.940Z,17.77
2023-02-22T14:18:30.313Z,18.23
2023-02-22T14:21:13.112Z,17.17
2023-02-22T14:23:45.328Z,17.88
2023-02-22T14:26:21.220Z,17.00
2023-02-22T14:29:09.603Z,15.88
2023-02-22T14:31:51.575Z,16.95
2023-02-22T14:34:39.917Z,17.25
2023-02-22T14:37:33.037Z,17.48
2023-02-22T14:40:12.810Z,17.08
2023-02-22T14:42:48.601Z,15.25
2023-02-22T14:45:28.545Z,15.40
2023-02-22T14:48:11.623Z,15.77
2023-02-22T14:50:41.763Z,15.93
2023-02-22T14:53:44.181Z,15.85
2023-02-22T14:56:26.782Z,16.17
2023-02-22T14:58:58.715Z,14.80
2023-02-22T15:01:44.352Z,14.45
2023-02-22T15:04:28.140Z,15.25
2023-02-22T15:06:59.947Z,15.43
2023-02-22T15:09:34.859Z,15.82
2023-02-22T15:12:05.010Z,13.50
2023-02-22T15:14:44.583Z,15.77
2023-02-22T15:17:22.804Z,15.68
2023-02-22T15:19:50.620Z,14.32
2023-02-22T15:22:25.177Z,15.52
2023-02-22T15:25:01.650Z,15.20
2023-02-22T15:27:29.408Z,15.07
2023-02-22T15:29:59.751Z,15.32
2023-02-22T15:32:49.870Z,13.75
2023-02-22T15:35:30.738Z,15.35
2023-02-22T15:38:04.071Z,15.20
2023-02-22T15:40:33.233Z,15.18
2023-02-22T15:43:08.848Z,15.00
2023-02-22T15:45:44.997Z,15.25
2023-02-22T15:48:12.617Z,15.15
2023-02-22T15:50:39.735Z,15.77
2023-02-22T15:53:29.417Z,16.48
2023-02-22T15:56:01.036Z,15.70
2023-02-22T15:58:30.034Z,16.25
2023-02-22T16:01:03.737Z,15.63
2023-02-22T16:06:35.692Z,16.05
2023-02-22T16:09:28.901Z,16.10
2023-02-22T16:12:22.954Z,17.98
2023-02-22T16:14:52.286Z,15.93
2023-02-22T16:17:26.697Z,18.52
2023-02-22T16:19:54.018Z,16.55
2023-02-22T16:22:35.828Z,19.08
2023-02-22T16:25:17.926Z,18.08
2023-02-22T16:28:12.804Z,16.67
2023-02-22T16:30:40.260Z,17.10
2023-02-22T16:33:13.777Z,16.85
2023-02-22T16:35:43.275Z,17.70
2023-02-22T16:38:17.199Z,17.95
2023-02-22T16:40:54.570Z,16.58
2023-02-22T16:43:24.285Z,18.90
2023-02-22T16:45:53.055Z,17.98
2023-02-22T16:48:23.119Z,18.23
2023-02-22T16:50:52.078Z,17.60
2023-02-22T16:53:21.908Z,19.35
2023-02-22T16:55:50.733Z,18.15
2023-02-22T16:58:19.162Z,19.75
2023-02-22T17:00:46.268Z,20.30
2023-02-22T17:03:18.327Z,19.92
2023-02-22T17:05:45.454Z,20.63
2023-02-22T17:08:13.054Z,22.30
2023-02-22T17:10:40.134Z,21.58
2023-02-22T17:13:21.869Z,21.23
2023-02-22T17:15:50.195Z,21.75
2023-02-22T17:18:22.701Z,22.63
2023-02-22T17:20:51.681Z,20.48
2023-02-22T17:23:19.763Z,21.35
2023-02-22T17:25:54.091Z,22.75
2023-02-22T17:28:23.665Z,21.50
2023-02-22T17:30:52.269Z,22.13
2023-02-22T17:33:27.958Z,20.98
2023-02-22T17:35:57.913Z,22.58
2023-02-22T17:38:28.969Z,22.63
2023-02-22T17:40:59.206Z,24.15
2023-02-22T17:43:28.159Z,24.05
2023-02-22T17:45:55.698Z,25.23
2023-02-22T17:48:24.561Z,28.45
2023-02-22T17:50:52.531Z,30.15
2023-02-22T17:53:24.582Z,32.17
2023-02-22T17:55:51.965Z,30.65
2023-02-22T17:58:19.248Z,30.95
2023-02-22T18:00:49.137Z,31.60
2023-02-22T18:03:25.075Z,32.47
2023-02-22T18:05:56.215Z,31.48
2023-02-22T18:08:25.539Z,33.20
2023-02-22T18:10:56.841Z,31.27
2023-02-22T18:13:27.884Z,34.40
2023-02-22T18:16:00.875Z,34.08
2023-02-22T18:18:28.695Z,37.92
2023-02-22T18:20:59.694Z,35.25
2023-02-22T18:23:30.475Z,34.97
2023-02-22T18:26:10.575Z,37.92
2023-02-22T18:28:39.193Z,36.28
2023-02-22T18:31:08.648Z,35.47
2023-02-22T18:33:35.811Z,35.65
2023-02-22T18:36:03.039Z,34.95
2023-02-22T18:38:30.134Z,36.35
2023-02-22T18:41:06.211Z,36.42
2023-02-22T18:43:36.260Z,37.80
2023-02-22T18:46:09.590Z,37.13
2023-02-22T18:48:37.754Z,36.03
2023-02-22T18:51:10.340Z,35.80
2023-02-22T18:53:38.852Z,37.83
2023-02-22T18:56:08.398Z,39.03
2023-02-22T18:58:36.245Z,43.92
2023-02-22T19:01:03.817Z,39.83
2023-02-22T19:03:32.768Z,44.80
2023-02-22T19:06:04.007Z,43.15
2023-02-22T19:08:32.732Z,44.88
2023-02-22T19:11:05.517Z,42.22
2023-02-22T19:13:33.872Z,43.85
2023-02-22T19:16:07.167Z,45.13
2023-02-22T19:18:34.380Z,44.65
2023-02-22T19:21:03.594Z,44.72
2023-02-22T19:23:34.526Z,43.05
2023-02-22T19:26:09.284Z,43.00
2023-02-22T19:31:33.754Z,44.40
2023-02-22T19:34:02.015Z,43.25
2023-02-22T19:36:29.320Z,43.92
2023-02-22T19:39:01.583Z,44.22
2023-02-22T19:41:29.622Z,44.35
2023-02-22T19:43:58.553Z,45.40
2023-02-22T19:46:26.860Z,45.53
2023-02-22T19:48:55.354Z,44.10
2023-02-22T19:51:25.756Z,46.28
2023-02-22T19:53:56.758Z,47.22
2023-02-22T19:56:28.222Z,47.38
2023-02-22T19:58:58.301Z,47.13
2023-02-22T20:01:29.072Z,49.85
2023-02-22T20:03:59.899Z,49.13
2023-02-22T20:06:34.995Z,43.85
2023-02-22T20:09:02.704Z,46.67
2023-02-22T20:11:29.950Z,47.00
2023-02-22T20:13:58.026Z,46.05
2023-02-22T20:16:25.261Z,47.65
2023-02-22T20:18:54.424Z,48.03
2023-02-22T20:21:28.156Z,48.45
2023-02-22T20:23:59.258Z,44.97
2023-02-22T20:26:29.407Z,43.40
2023-02-22T20:28:58.037Z,44.80
2023-02-22T20:31:25.287Z,45.00
2023-02-22T20:33:54.201Z,42.20
2023-02-22T20:36:24.989Z,43.28
2023-02-22T20:38:54.779Z,42.70
2023-02-22T20:41:33.071Z,41.20
2023-02-22T20:44:02.292Z,41.28
2023-02-22T20:46:36.109Z,42.05
2023-02-22T20:49:07.454Z,41.35
2023-02-22T20:51:35.370Z,43.60
2023-02-22T20:54:02.941Z,41.13
2023-02-22T20:56:32.722Z,43.40
2023-02-22T20:59:02.329Z,39.97
2023-02-22T21:01:29.977Z,40.85
2023-02-22T21:04:05.011Z,40.67
2023-02-22T21:06:35.313Z,41.50
2023-02-22T21:09:07.123Z,40.65
2023-02-22T21:11:34.940Z,41.75
2023-02-22T21:14:02.960Z,42.20
2023-02-22T21:16:35.910Z,40.90
2023-02-22T21:19:05.990Z,40.60
2023-02-22T21:21:34.658Z,38.55
2023-02-22T21:24:01.901Z,36.58
2023-02-22T21:26:34.415Z,37.40
2023-02-22T21:29:05.052Z,38.88
2023-02-22T21:31:34.025Z,38.53
2023-02-22T21:34:02.026Z,37.65
2023-02-22T21:36:29.142Z,38.05
2023-02-22T21:38:59.913Z,38.38
2023-02-22T21:41:31.046Z,35.72
2023-02-22T21:43:59.254Z,36.88
2023-02-22T21:46:29.140Z,35.45
2023-02-22T21:48:58.701Z,36.83
2023-02-22T21:51:31.728Z,36.45
2023-02-22T21:54:04.172Z,36.70
2023-02-22T21:56:34.981Z,34.50
2023-02-22T21:59:05.132Z,35.65
2023-02-22T22:01:38.820Z,34.95
2023-02-22T22:06:34.684Z,34.03
2023-02-22T22:09:04.893Z,32.92
2023-02-22T22:11:31.990Z,34.75
2023-02-22T22:14:00.324Z,34.15
2023-02-22T22:16:33.027Z,34.15
2023-02-22T22:19:00.111Z,34.17
2023-02-22T22:21:28.681Z,36.28
2023-02-22T22:23:57.052Z,34.08
2023-02-22T22:26:25.424Z,33.53
2023-02-22T22:28:56.966Z,33.85
2023-02-22T22:31:26.315Z,33.25
2023-02-22T22:33:57.129Z,33.58
2023-02-22T22:36:28.452Z,33.97
2023-02-22T22:38:57.847Z,32.83
2023-02-22T22:41:28.131Z,34.10
2023-02-22T22:43:56.702Z,34.90
2023-02-22T22:46:23.919Z,32.58
2023-02-22T22:48:51.068Z,35.13
2023-02-22T22:51:20.671Z,34.42
2023-02-22T22:53:49.599Z,32.65
2023-02-22T22:56:19.221Z,32.58
2023-02-22T22:58:51.968Z,33.83
2023-02-22T23:01:27.972Z,35.35
2023-02-22T23:04:01.322Z,34.85
2023-02-22T23:09:11.394Z,33.08
2023-02-22T23:11:46.540Z,32.38
2023-02-22T23:14:19.528Z,33.55
2023-02-22T23:16:48.396Z,29.17
2023-02-22T23:19:16.563Z,32.00
2023-02-22T23:21:43.964Z,33.60
2023-02-22T23:24:17.678Z,33.22
2023-02-22T23:29:20.866Z,30.15
2023-02-22T23:31:49.683Z,31.35
2023-02-22T23:34:18.712Z,31.73
2023-02-22T23:36:46.777Z,32.63
2023-02-22T23:39:15.604Z,32.95
2023-02-22T23:41:42.746Z,31.65
2023-02-22T23:44:17.947Z,33.55
2023-02-22T23:46:48.248Z,32.38
2023-02-22T23:49:20.586Z,33.97
2023-02-22T23:51:48.538Z,33.13
2023-02-22T23:54:21.674Z,32.92
2023-02-22T23:56:58.114Z,32.20
2023-02-22T23:59:26.907Z,32.85
